Time;durP1;ratioP1;P1;durP2;ratioP2;P2;SDS_P1;SDS_P2;PMS_P1;PMS_P2;Temp;Humidity;BMP_temperature;BMP_pressure;BME280_temperature;BME280_humidity;BME280_pressure;Samples;Min_cycle;Max_cycle;Signal;HPM_P1;HPM_P2
2020/05/20 04:16:38;;;;;;;4;3.1;;;;;;;14.59;75.31934;961.2519;;;;
2020/05/20 04:21:14;;;;;;;3.8;3.1;;;;;;;14.61;75.18262;961.2742;;;;
2020/05/20 04:23:47;;;;;;;5;3.2;;;;;;;14.76;74.67285;961.2743;;;;
2020/05/20 04:26:10;;;;;;;3.7;3;;;;;;;14.79;74.51758;961.3474;;;;
2020/05/20 04:28:34;;;;;;;4.2;3.7;;;;;;;14.77;74.60449;961.348;;;;
2020/05/20 04:31:00;;;;;;;5.8;3.2;;;;;;;14.72;74.88965;961.2996;;;;
2020/05/20 04:38:27;;;;;;;4.6;3.1;;;;;;;14.91;73.89648;961.4581;;;;
2020/05/20 04:41:04;;;;;;;5.4;3.2;;;;;;;14.89;73.97559;961.4858;;;;
2020/05/20 04:53:12;;;;;;;3.8;3;;;;;;;15;73.58789;961.5668;;;;
2020/05/20 05:05:14;;;;;;;5;3.4;;;;;;;14.98;74.51563;961.7111;;;;
2020/05/20 05:09:58;;;;;;;5.3;3.5;;;;;;;15.18;73.52539;961.6678;;;;
2020/05/20 05:12:48;;;;;;;6.2;3.6;;;;;;;14.96;75.13867;961.6906;;;;
2020/05/20 05:14:34;;;;;;;7.5;4.1;;;;;;;14.82;75.78906;961.6528;;;;
2020/05/20 05:17:16;;;;;;;6.5;4.1;;;;;;;14.9;75.22168;961.6772;;;;
2020/05/20 05:21:54;;;;;;;5.5;3.8;;;;;;;14.99;75.07324;961.6856;;;;
2020/05/20 05:25:12;;;;;;;4.7;3.8;;;;;;;15.02;74.90527;961.7279;;;;
2020/05/20 05:26:47;;;;;;;5.4;3.6;;;;;;;15.17;74.32617;961.7508;;;;
2020/05/20 05:49:19;;;;;;;4.7;3.5;;;;;;;15.17;73.79102;961.6473;;;;
2020/05/20 06:00:47;;;;;;;6.9;4.2;;;;;;;15.24;74.93164;961.613;;;;
2020/05/20 06:03:05;;;;;;;5.1;3.8;;;;;;;15.22;74.47363;961.6597;;;;
2020/05/20 06:05:27;;;;;;;5.5;3.7;;;;;;;15.29;73.93848;961.6069;;;;
2020/05/20 06:10:34;;;;;;;5.7;3.8;;;;;;;15.36;73.41406;961.6472;;;;
2020/05/20 06:13:37;;;;;;;6;3.9;;;;;;;15.31;73.44141;961.633;;;;
2020/05/20 06:16:25;;;;;;;5.8;4;;;;;;;15.21;76.23828;961.6442;;;;
2020/05/20 06:25:35;;;;;;;5.8;4.2;;;;;;;15.23;76.15137;961.6994;;;;
2020/05/20 06:28:52;;;;;;;9.3;4.4;;;;;;;15.25;75.70117;961.6508;;;;
2020/05/20 06:36:05;;;;;;;7;4;;;;;;;15.38;76.75879;961.6252;;;;
2020/05/20 06:37:01;;;;;;;8.5;4.3;;;;;;;15.33;74.44531;961.6866;;;;
2020/05/20 06:39:23;;;;;;;6.4;4.3;;;;;;;15.3;75.35938;961.6897;;;;
2020/05/20 06:41:45;;;;;;;5.3;3.6;;;;;;;15.6;74.23633;961.6792;;;;
2020/05/20 06:44:03;;;;;;;6.1;4.1;;;;;;;15.75;73.02637;961.7004;;;;
2020/05/20 06:46:39;;;;;;;5.3;4.1;;;;;;;15.86;72.60156;961.7739;;;;
2020/05/20 06:51:36;;;;;;;6.6;4.7;;;;;;;15.87;73.88574;961.9087;;;;
2020/05/20 06:54:45;;;;;;;6.4;4.6;;;;;;;16;72.63867;961.9408;;;;
2020/05/20 06:56:33;;;;;;;9.4;4.7;;;;;;;15.91;72.71484;961.9325;;;;
2020/05/20 07:08:33;;;;;;;5.7;4.4;;;;;;;16.32;72.23535;961.9684;;;;
2020/05/20 07:16:23;;;;;;;5.2;4.1;;;;;;;16.55;71.10742;961.994;;;;
2020/05/20 07:18:08;;;;;;;8.1;5.3;;;;;;;16.44;71.46289;962.0491;;;;
2020/05/20 07:21:26;;;;;;;6.2;4.3;;;;;;;16.54;70.8252;962.0575;;;;
2020/05/20 07:23:09;;;;;;;7.3;4.1;;;;;;;16.6;70.23926;962.0737;;;;
2020/05/20 07:25:17;;;;;;;5.3;3.9;;;;;;;16.58;70.16602;962.0656;;;;
2020/05/20 07:27:57;;;;;;;7.7;4.1;;;;;;;16.72;69.94434;962.0286;;;;
2020/05/20 07:30:21;;;;;;;5.1;4.1;;;;;;;16.71;70.45508;962.054;;;;
2020/05/20 07:38:10;;;;;;;7.1;4.2;;;;;;;16.67;70.92773;962.0006;;;;
2020/05/20 07:40:09;;;;;;;6.4;4.1;;;;;;;16.7;70.78027;962.0006;;;;
2020/05/20 07:54:18;;;;;;;7.2;4.6;;;;;;;17.03;71.23047;962.0474;;;;
2020/05/20 07:59:18;;;;;;;5.5;3.9;;;;;;;17.24;69.88672;962.069;;;;
2020/05/20 08:14:08;;;;;;;5.2;3.8;;;;;;;16.94;68.69531;962.0055;;;;
2020/05/20 08:35:43;;;;;;;6;3.3;;;;;;;17.46;64.36719;962.3063;;;;
2020/05/20 08:37:52;;;;;;;6;3.4;;;;;;;17.45;64.7168;962.3377;;;;
2020/05/20 08:45:59;;;;;;;8.6;5.9;;;;;;;17.78;63.86426;962.3582;;;;
2020/05/20 08:49:44;;;;;;;5.4;3.6;;;;;;;17.55;64.4502;962.3496;;;;
2020/05/20 08:52:09;;;;;;;5.4;3.8;;;;;;;17.57;64.00879;962.3052;;;;
2020/05/20 08:54:34;;;;;;;4.7;3.6;;;;;;;17.56;65.07129;962.3111;;;;
2020/05/20 08:56:59;;;;;;;5.2;3.7;;;;;;;17.63;65.3623;962.2645;;;;
2020/05/20 08:59:25;;;;;;;6.2;3.7;;;;;;;17.75;64.93555;962.2452;;;;
2020/05/20 09:01:50;;;;;;;6.4;3.2;;;;;;;17.64;64.51172;962.2512;;;;
2020/05/20 09:04:15;;;;;;;5.7;3.4;;;;;;;17.62;62.92871;962.2836;;;;
2020/05/20 09:06:40;;;;;;;7.2;3.5;;;;;;;17.62;64.46094;962.2812;;;;
2020/05/20 09:09:06;;;;;;;5.2;3.2;;;;;;;17.91;63.5791;962.307;;;;
2020/05/20 09:13:56;;;;;;;6.7;3.3;;;;;;;18.05;63.58691;962.3279;;;;
2020/05/20 09:17:41;;;;;;;4.5;3.4;;;;;;;17.93;65.14941;962.3946;;;;
2020/05/20 09:26:48;;;;;;;4.9;3.6;;;;;;;18.32;62.58496;962.3997;;;;
2020/05/20 09:28:29;;;;;;;5.7;3.1;;;;;;;18.39;60.34277;962.3653;;;;
2020/05/20 09:30:52;;;;;;;5.3;3.6;;;;;;;18.25;63.49805;962.3862;;;;
2020/05/20 09:33:17;;;;;;;5;3.4;;;;;;;18.42;61.3916;962.3831;;;;
2020/05/20 09:35:42;;;;;;;6;3.1;;;;;;;18.75;60.96582;962.4166;;;;
2020/05/20 09:45:37;;;;;;;5.5;3.7;;;;;;;18.85;60.46484;962.4662;;;;
2020/05/20 09:52:49;;;;;;;4.2;3.2;;;;;;;19;59.55859;962.4674;;;;
2020/05/20 09:57:37;;;;;;;7;3.9;;;;;;;18.82;59.81641;962.3798;;;;
2020/05/20 09:59:55;;;;;;;5.6;3.6;;;;;;;19.1;58.30469;962.4846;;;;
2020/05/20 10:02:19;;;;;;;3.8;3.1;;;;;;;19.03;57.94336;962.472;;;;
2020/05/20 10:04:45;;;;;;;4.7;2.9;;;;;;;19.18;58.49121;962.4797;;;;
2020/05/20 10:07:10;;;;;;;4.4;2.9;;;;;;;19.01;59.54688;962.5069;;;;
2020/05/20 10:09:36;;;;;;;4.9;3.3;;;;;;;18.99;58.6084;962.5209;;;;
2020/05/20 10:12:01;;;;;;;4.9;3.1;;;;;;;19.13;58.61426;962.4727;;;;
2020/05/20 10:14:27;;;;;;;5.5;2.9;;;;;;;18.75;59.4668;962.5197;;;;
2020/05/20 10:16:52;;;;;;;6.3;2.8;;;;;;;18.79;59.95313;962.5096;;;;
2020/05/20 10:19:18;;;;;;;3.3;2.8;;;;;;;18.94;59.19922;962.5175;;;;
2020/05/20 10:21:43;;;;;;;5.3;2.7;;;;;;;19.01;57.91602;962.4871;;;;
2020/05/20 10:24:08;;;;;;;2.8;2.5;;;;;;;19.18;58.10547;962.4895;;;;
2020/05/20 10:26:33;;;;;;;3.4;2.4;;;;;;;19.39;57.13379;962.5105;;;;
2020/05/20 10:28:58;;;;;;;3.7;2.5;;;;;;;19.37;57.2832;962.5115;;;;
2020/05/20 10:31:25;;;;;;;3.4;2.6;;;;;;;19.41;56.10156;962.5391;;;;
2020/05/20 10:33:50;;;;;;;4;2.3;;;;;;;19.48;54.38379;962.4956;;;;
2020/05/20 10:36:15;;;;;;;4;2.2;;;;;;;19.63;55.60156;962.5046;;;;
2020/05/20 10:38:40;;;;;;;4.3;2.3;;;;;;;19.7;56.78613;962.5701;;;;
2020/05/20 10:41:05;;;;;;;3;2.4;;;;;;;19.38;56.02832;962.5344;;;;
2020/05/20 10:43:31;;;;;;;4.1;2.8;;;;;;;19.36;57.88184;962.519;;;;
2020/05/20 10:45:56;;;;;;;4.4;2.5;;;;;;;19.55;56.67383;962.5408;;;;
2020/05/20 10:48:21;;;;;;;2.4;2.2;;;;;;;19.79;54.78711;962.5641;;;;
2020/05/20 10:50:46;;;;;;;4.6;2.1;;;;;;;19.59;54.375;962.5908;;;;
2020/05/20 10:53:11;;;;;;;4.5;2.5;;;;;;;19.46;56.86133;962.5336;;;;
2020/05/20 10:55:36;;;;;;;4.6;2.4;;;;;;;19.43;55.8457;962.5539;;;;
2020/05/20 10:58:01;;;;;;;3.8;2;;;;;;;19.27;55.68555;962.5574;;;;
2020/05/20 11:00:26;;;;;;;2.7;2;;;;;;;19.54;55.06152;962.5784;;;;
2020/05/20 11:02:51;;;;;;;3.5;1.9;;;;;;;19.43;56.08203;962.5647;;;;
2020/05/20 11:05:17;;;;;;;2.8;1.8;;;;;;;19.48;55.61719;962.5567;;;;
2020/05/20 11:07:42;;;;;;;3.1;1.7;;;;;;;19.2;54.65527;962.5817;;;;
2020/05/20 11:10:08;;;;;;;2.2;1.8;;;;;;;19.58;54.63281;962.6075;;;;
2020/05/20 11:12:33;;;;;;;3.5;2;;;;;;;19.75;51.15137;962.6117;;;;
2020/05/20 11:14:58;;;;;;;2.4;1.7;;;;;;;19.61;51.6875;962.6245;;;;
2020/05/20 11:17:23;;;;;;;2.4;1.8;;;;;;;19.73;52.39453;962.5945;;;;
2020/05/20 11:19:48;;;;;;;2;1.8;;;;;;;19.67;51.99805;962.5797;;;;
2020/05/20 11:22:13;;;;;;;6.7;1.9;;;;;;;19.81;52.13379;962.5944;;;;
2020/05/20 11:24:39;;;;;;;3.1;2.1;;;;;;;19.89;52.8125;962.5892;;;;
2020/05/20 11:27:04;;;;;;;2.8;2.4;;;;;;;19.62;53.5791;962.5863;;;;
2020/05/20 11:29:29;;;;;;;2.7;2.2;;;;;;;19.84;52.63086;962.5725;;;;
2020/05/20 11:31:54;;;;;;;3.4;2;;;;;;;20.01;51.70996;962.5678;;;;
2020/05/20 11:34:19;;;;;;;4.3;2.4;;;;;;;19.84;52.07813;962.5494;;;;
2020/05/20 11:36:45;;;;;;;3.5;2.3;;;;;;;20;51.63867;962.577;;;;
2020/05/20 11:39:10;;;;;;;4.9;2.1;;;;;;;19.9;51.87402;962.532;;;;
2020/05/20 11:41:35;;;;;;;3;1.9;;;;;;;19.85;51.32715;962.4922;;;;
2020/05/20 11:44:00;;;;;;;4;1.8;;;;;;;19.93;50.2207;962.5359;;;;
2020/05/20 11:46:25;;;;;;;2.9;1.7;;;;;;;19.94;50.38477;962.4622;;;;
2020/05/20 11:48:51;;;;;;;2.2;1.8;;;;;;;19.86;51.02246;962.463;;;;
2020/05/20 11:51:16;;;;;;;2.4;1.6;;;;;;;19.72;51.74707;962.488;;;;
2020/05/20 11:53:41;;;;;;;2.9;1.8;;;;;;;19.5;52.14355;962.5259;;;;
2020/05/20 11:56:06;;;;;;;3.5;2;;;;;;;19.47;52.26953;962.4565;;;;
2020/05/20 11:58:32;;;;;;;3;1.7;;;;;;;19.58;51.34277;962.5123;;;;
2020/05/20 12:01:01;;;;;;;2.4;1.6;;;;;;;19.58;51.07129;962.4612;;;;
2020/05/20 12:03:22;;;;;;;3.8;1.7;;;;;;;19.55;50.83398;962.483;;;;
2020/05/20 12:05:47;;;;;;;3.1;1.9;;;;;;;19.63;49.99707;962.4492;;;;
2020/05/20 12:08:38;;;;;;;3.4;1.9;;;;;;;20.04;50.24316;962.407;;;;
2020/05/20 12:10:44;;;;;;;3.8;1.8;;;;;;;20.38;51.01172;962.39;;;;
2020/05/20 12:13:34;;;;;;;4.3;1.8;;;;;;;20.58;50.94043;962.3645;;;;
2020/05/20 12:46:13;;;;;;;3.4;2.3;;;;;;;22.06;46.91602;962.0396;;;;
2020/05/20 12:47:25;;;;;;;2.8;2.3;;;;;;;22.33;45.16113;962.0086;;;;
2020/05/20 13:04:19;;;;;;;3.1;1.6;;;;;;;22.47;43.87305;961.9341;;;;
2020/05/20 13:06:40;;;;;;;2.7;1.7;;;;;;;22.51;44.05469;961.9314;;;;
2020/05/20 13:08:55;;;;;;;4.4;1.7;;;;;;;21.91;45.79102;961.9804;;;;
2020/05/20 13:11:20;;;;;;;2.5;1.6;;;;;;;21.97;45.98633;961.9874;;;;
2020/05/20 18:12:56;;;;;;;4.7;2.5;;;;;;;19.53;56.59961;961.8088;;;;
2020/05/20 18:15:06;;;;;;;3.4;2.2;;;;;;;19.46;56.77832;961.8351;;;;
2020/05/20 18:17:31;;;;;;;4.3;2.4;;;;;;;19.39;57.0166;961.9029;;;;
2020/05/20 18:19:56;;;;;;;4.5;2.2;;;;;;;19.52;56.52734;961.8865;;;;
2020/05/20 18:22:21;;;;;;;4.1;2.5;;;;;;;19.49;56.81836;961.9339;;;;
2020/05/20 18:24:46;;;;;;;4.7;2.5;;;;;;;19.45;56.62402;961.947;;;;
2020/05/20 18:27:11;;;;;;;3.4;2.4;;;;;;;19.51;56.52637;961.9387;;;;
2020/05/20 18:29:43;;;;;;;3.9;2.1;;;;;;;19.3;57.78027;961.9528;;;;
2020/05/20 18:32:12;;;;;;;4.2;3.1;;;;;;;19.24;57.9248;961.965;;;;
2020/05/20 18:34:37;;;;;;;4.6;2.7;;;;;;;19.29;57.87207;961.9808;;;;
2020/05/20 18:37:02;;;;;;;4.9;3.2;;;;;;;19.15;58.85156;961.9825;;;;
2020/05/20 18:39:27;;;;;;;5.1;2.7;;;;;;;19.07;58.69922;961.9702;;;;
2020/05/20 18:41:52;;;;;;;3.1;2.4;;;;;;;18.96;59.0127;961.9571;;;;
2020/05/20 18:44:18;;;;;;;3.6;2.6;;;;;;;19.06;58.39258;961.9877;;;;
2020/05/20 18:46:43;;;;;;;3.3;2.5;;;;;;;18.94;60.32617;961.9756;;;;
2020/05/20 18:49:08;;;;;;;5;2.5;;;;;;;18.85;60.74609;961.9402;;;;
2020/05/20 18:51:33;;;;;;;5;3.3;;;;;;;18.95;59.46973;961.9821;;;;
2020/05/20 18:53:59;;;;;;;5.3;3.1;;;;;;;18.7;59.66016;962.0344;;;;
2020/05/20 18:56:24;;;;;;;4.5;2.6;;;;;;;18.73;59.34668;962.0552;;;;
2020/05/20 18:58:50;;;;;;;3.2;2.2;;;;;;;18.6;60.06836;962.0367;;;;
2020/05/20 19:01:15;;;;;;;3.9;2.7;;;;;;;18.57;59.98047;962.0446;;;;
2020/05/20 19:03:42;;;;;;;3.6;2.4;;;;;;;18.54;60.77441;962.0372;;;;
2020/05/20 19:06:07;;;;;;;4.5;2.9;;;;;;;18.39;61.22266;962.0888;;;;
2020/05/20 19:08:33;;;;;;;3.6;2.6;;;;;;;18.4;60.94238;962.1176;;;;
2020/05/20 19:10:58;;;;;;;4.7;2.5;;;;;;;18.41;60.61523;962.1622;;;;
2020/05/20 19:16:05;;;;;;;4.4;2.7;;;;;;;18.29;62.28613;962.1614;;;;
2020/05/20 19:21:04;;;;;;;3.6;2.3;;;;;;;18.14;63.38965;962.1641;;;;
2020/05/20 19:23:14;;;;;;;5.2;2.6;;;;;;;18.02;63.40625;962.1953;;;;
2020/05/20 19:25:32;;;;;;;4.9;2.6;;;;;;;17.93;64.75293;962.233;;;;
2020/05/20 19:27:57;;;;;;;4.9;3;;;;;;;17.86;62.96289;962.287;;;;
2020/05/20 19:30:22;;;;;;;4.6;2.9;;;;;;;18.01;62.18848;962.1987;;;;
2020/05/20 19:32:48;;;;;;;4.1;2.7;;;;;;;18.08;61.83594;962.2329;;;;
2020/05/20 19:35:13;;;;;;;4.1;2.3;;;;;;;18.08;61.64746;962.209;;;;
2020/05/20 19:37:38;;;;;;;3.1;2.1;;;;;;;18.05;63.82129;962.2256;;;;
2020/05/20 19:40:03;;;;;;;4.8;2.7;;;;;;;17.86;63.76953;962.2729;;;;
2020/05/20 19:42:28;;;;;;;3.7;2.8;;;;;;;17.86;63.93262;962.267;;;;
2020/05/20 19:44:54;;;;;;;3.5;2.5;;;;;;;17.75;65.27441;962.3539;;;;
2020/05/20 19:47:19;;;;;;;4.7;2.7;;;;;;;17.75;65.24121;962.3217;;;;
2020/05/20 19:49:45;;;;;;;3.4;2.6;;;;;;;17.78;65.47852;962.3738;;;;
2020/05/20 19:52:11;;;;;;;5;3.3;;;;;;;17.69;65.43164;962.3953;;;;
2020/05/20 19:54:37;;;;;;;3.9;3.1;;;;;;;17.63;66.31055;962.4203;;;;
2020/05/20 19:57:02;;;;;;;6.4;3.3;;;;;;;17.64;65.76172;962.3691;;;;
2020/05/20 19:59:27;;;;;;;4.6;2.9;;;;;;;17.67;64.77246;962.4011;;;;
2020/05/20 20:01:52;;;;;;;5;3.1;;;;;;;17.5;66.02246;962.4011;;;;
2020/05/20 20:04:17;;;;;;;5.4;3.4;;;;;;;17.51;66.17383;962.4291;;;;
2020/05/20 20:06:50;;;;;;;4.6;3.1;;;;;;;17.37;66.30469;962.4335;;;;
2020/05/20 20:09:08;;;;;;;5.3;3.4;;;;;;;17.24;66.8584;962.4603;;;;
2020/05/20 20:11:33;;;;;;;4.4;3.1;;;;;;;17.23;68.01563;962.5156;;;;
2020/05/20 20:16:23;;;;;;;3.9;3;;;;;;;17.24;67.31543;962.5114;;;;
2020/05/20 20:18:49;;;;;;;4.9;3.2;;;;;;;17.28;68.25586;962.5244;;;;
2020/05/20 20:21:14;;;;;;;4.2;3;;;;;;;17.26;68.33496;962.5302;;;;
2020/05/20 20:23:41;;;;;;;4;3;;;;;;;17.2;67.94141;962.579;;;;
2020/05/20 20:26:06;;;;;;;4.9;3;;;;;;;17.11;68.19434;962.5789;;;;
2020/05/20 20:28:31;;;;;;;4.7;2.9;;;;;;;17.1;68.18164;962.5461;;;;
2020/05/20 20:30:56;;;;;;;5.6;2.7;;;;;;;16.99;68.63184;962.5272;;;;
2020/05/20 20:33:21;;;;;;;4.5;2.7;;;;;;;16.97;68.24414;962.5842;;;;
2020/05/20 20:35:47;;;;;;;4.3;3.1;;;;;;;16.97;68.39453;962.5761;;;;
2020/05/20 20:38:12;;;;;;;4.8;3.1;;;;;;;16.97;67.625;962.5579;;;;
2020/05/20 20:40:38;;;;;;;4;3.2;;;;;;;16.93;68.5625;962.6484;;;;
2020/05/20 20:43:03;;;;;;;4;3.3;;;;;;;16.8;69.53613;962.6469;;;;
2020/05/20 20:45:32;;;;;;;5.7;3.7;;;;;;;16.76;69.14453;962.6766;;;;
2020/05/20 20:47:57;;;;;;;6;3.5;;;;;;;16.73;69.77051;962.7183;;;;
2020/05/20 20:50:22;;;;;;;4.1;3.1;;;;;;;16.91;68.74609;962.7606;;;;
2020/05/20 20:52:48;;;;;;;3.2;2.9;;;;;;;16.96;68.37109;962.7375;;;;
2020/05/20 20:55:13;;;;;;;4.6;3.3;;;;;;;16.79;69.21875;962.7375;;;;
2020/05/20 20:57:38;;;;;;;3.9;3.5;;;;;;;16.62;69.625;962.7123;;;;
2020/05/20 21:00:03;;;;;;;4.4;3.5;;;;;;;16.66;70.17871;962.743;;;;
2020/05/20 21:02:28;;;;;;;5.7;3.8;;;;;;;16.59;70.14453;962.7947;;;;
2020/05/20 21:04:54;;;;;;;3.9;3.5;;;;;;;16.51;70.54102;962.8038;;;;
2020/05/20 21:07:19;;;;;;;4.8;3.6;;;;;;;16.55;69.60156;962.7675;;;;
2020/05/20 21:09:45;;;;;;;4.5;3.7;;;;;;;16.5;69.36035;962.7904;;;;
2020/05/20 21:12:10;;;;;;;4.5;3.7;;;;;;;16.43;70.22461;962.8109;;;;
2020/05/20 21:14:36;;;;;;;4.4;4;;;;;;;16.35;71.65723;962.7919;;;;
2020/05/20 21:17:01;;;;;;;5.2;4.1;;;;;;;16.46;71.01074;962.8588;;;;
2020/05/20 21:19:27;;;;;;;5.2;4.4;;;;;;;16.4;70.52246;962.8472;;;;
2020/05/20 21:21:52;;;;;;;4.4;4;;;;;;;16.32;71.16211;962.8247;;;;
2020/05/20 21:24:19;;;;;;;6.4;4.4;;;;;;;16.24;71.09082;962.8248;;;;
2020/05/20 21:26:44;;;;;;;5.9;4.2;;;;;;;16.23;71.8125;962.8262;;;;
2020/05/20 21:29:10;;;;;;;7;4.5;;;;;;;16.19;72.08496;962.8155;;;;
2020/05/20 21:31:35;;;;;;;4.8;4.2;;;;;;;16.12;72.33008;962.8315;;;;
2020/05/20 21:34:01;;;;;;;6;4.6;;;;;;;16.11;72.49316;962.8505;;;;
2020/05/20 21:36:26;;;;;;;5.8;4.9;;;;;;;16.09;72.72168;962.824;;;;
2020/05/20 21:39:17;;;;;;;5.7;4.9;;;;;;;16.05;72.77539;962.8339;;;;
2020/05/20 21:41:18;;;;;;;5.9;5;;;;;;;16.04;72.09668;962.8381;;;;
2020/05/20 21:46:26;;;;;;;6.1;5;;;;;;;16.09;73.51465;962.8405;;;;
2020/05/20 21:48:40;;;;;;;6.5;5.2;;;;;;;16.08;73.18652;962.8957;;;;
2020/05/20 21:51:03;;;;;;;6.3;5.4;;;;;;;16.04;73.15723;962.8825;;;;
2020/05/20 21:53:28;;;;;;;6.3;5.3;;;;;;;16;73.25488;962.9529;;;;
2020/05/20 21:55:55;;;;;;;7.3;5.5;;;;;;;15.89;74.02734;962.9667;;;;
2020/05/20 21:58:20;;;;;;;7.2;5.9;;;;;;;15.82;74.5293;962.9333;;;;
2020/05/20 22:00:47;;;;;;;6.4;5.5;;;;;;;15.84;74.65039;963.0198;;;;
2020/05/20 22:03:12;;;;;;;6.7;5.5;;;;;;;15.85;74.89648;963.0076;;;;
2020/05/20 22:05:37;;;;;;;6.9;5.4;;;;;;;15.82;74.23828;962.995;;;;
2020/05/20 22:08:02;;;;;;;6.8;5.2;;;;;;;15.82;74.64551;962.9752;;;;
2020/05/20 22:10:28;;;;;;;6.4;5.7;;;;;;;15.8;74.25781;963.0263;;;;
2020/05/20 22:12:53;;;;;;;6.8;6.1;;;;;;;15.82;74.68164;962.9867;;;;
2020/05/20 22:15:18;;;;;;;8.6;6.4;;;;;;;15.77;75.03418;963.0525;;;;
2020/05/20 22:17:43;;;;;;;7.3;6.6;;;;;;;15.73;75.16602;963.0266;;;;
2020/05/20 22:20:08;;;;;;;7.5;6.3;;;;;;;15.73;75.54004;963.0129;;;;
2020/05/20 22:22:33;;;;;;;8.1;7;;;;;;;15.62;76.1709;963.0342;;;;
2020/05/20 22:24:58;;;;;;;8.4;6.8;;;;;;;15.59;76.3291;963.0234;;;;
2020/05/20 22:27:25;;;;;;;7.6;6.8;;;;;;;15.55;76.93945;963.0656;;;;
2020/05/20 22:29:50;;;;;;;8;7.2;;;;;;;15.44;77.68945;963.0579;;;;
2020/05/20 22:32:16;;;;;;;8.1;7;;;;;;;15.33;78.01758;963.0588;;;;
2020/05/20 22:34:49;;;;;;;9.7;7.6;;;;;;;15.33;77.95898;963.058;;;;
2020/05/20 22:37:19;;;;;;;9.5;7.4;;;;;;;15.32;78.15527;963.0367;;;;
2020/05/20 22:39:48;;;;;;;9.6;7.4;;;;;;;15.26;77.83203;963.0642;;;;
2020/05/20 22:42:10;;;;;;;7.8;6.8;;;;;;;15.22;78.74316;963.0572;;;;
2020/05/20 22:47:07;;;;;;;9;6.6;;;;;;;15.27;78.4834;963.0896;;;;
2020/05/20 22:49:29;;;;;;;8.2;6.4;;;;;;;15.25;78.9707;963.1378;;;;
2020/05/20 22:51:46;;;;;;;7.4;6.7;;;;;;;15.28;78.43945;963.0945;;;;
2020/05/20 22:54:12;;;;;;;7.6;6.8;;;;;;;15.23;78.1748;963.0796;;;;
2020/05/20 22:56:37;;;;;;;8.8;7;;;;;;;15.26;78.02832;963.0413;;;;
2020/05/20 22:59:04;;;;;;;7.4;6.6;;;;;;;15.19;78.70313;963.0881;;;;
2020/05/20 23:01:26;;;;;;;8.7;6.9;;;;;;;15.08;79.28711;963.0589;;;;
2020/05/20 23:03:44;;;;;;;7.7;6.9;;;;;;;15.04;79.59375;963.074;;;;
2020/05/20 23:06:10;;;;;;;7.7;6.8;;;;;;;15.03;79.30176;963.0322;;;;
2020/05/20 23:08:35;;;;;;;8.3;6.6;;;;;;;15.14;79.37988;963.0363;;;;
2020/05/20 23:11:01;;;;;;;8.1;6.6;;;;;;;15.13;79.72656;963.0631;;;;
2020/05/20 23:20:41;;;;;;;9.5;7.4;;;;;;;14.97;78.1748;963.0801;;;;
2020/05/20 23:23:06;;;;;;;7.5;6.7;;;;;;;14.93;79.57617;963.0709;;;;
2020/05/20 23:25:32;;;;;;;7.3;6.6;;;;;;;14.94;79.33203;963.0488;;;;
2020/05/20 23:27:57;;;;;;;9.6;6.5;;;;;;;14.97;80.33691;963.0809;;;;
2020/05/20 23:30:22;;;;;;;8.3;7;;;;;;;14.81;80.20215;963.0519;;;;
2020/05/20 23:32:47;;;;;;;7.7;6.9;;;;;;;14.86;79.18945;963.0266;;;;
2020/05/20 23:35:13;;;;;;;7.9;7.1;;;;;;;14.84;79.30273;963.0538;;;;
2020/05/20 23:37:43;;;;;;;8.1;7.3;;;;;;;14.79;80.66406;963.0278;;;;
2020/05/20 23:40:47;;;;;;;8.1;7.3;;;;;;;14.84;79.05859;963.0259;;;;
2020/05/20 23:42:53;;;;;;;8.4;7.6;;;;;;;14.84;80.10254;963.0176;;;;
2020/05/20 23:45:09;;;;;;;8.7;7.6;;;;;;;14.77;80.1377;963.0062;;;;
2020/05/20 23:49:43;;;;;;;8.7;7.4;;;;;;;14.69;80.98145;962.976;;;;
2020/05/20 23:52:08;;;;;;;8;7.2;;;;;;;14.72;80.85059;962.9338;;;;
2020/05/20 23:59:24;;;;;;;8.2;6.5;;;;;;;14.66;79.1543;962.8997;;;;
